Situs API Video Gratis Terbaik

AVDBAPI.COM

Cari katalog, periksa data, dan salin URL API bersih dari satu dasbor cepat.

Telegram Gabung komunitas Telegram untuk update!
Today
93
Pembaruan Hari Ini
Censored
313977
Video Disensor
Total
474136
Total Video

Daftar Video

Data terbaru diurutkan berdasarkan waktu pembaruan.

ID Nama CODE Kategori Diperbarui API
268555 H4610-KI210117 Eri Hamada Gadis Cantik 22 Tahun H4610-KI210117 Tanpa sensor 2025-08-29 13:57:30 API
268554 H0930-KI200324 Wanita Seksi 31 Tahun Akaishi Yoshiko H0930-KI200324 Tanpa sensor 2025-08-29 13:57:20 API
268553 080918_725 Yu Aiuchi Yang Seksi dan Menggoda 080918_725 Tanpa sensor 2025-08-29 13:57:10 API
268552 FC2-PPV-4458158 fc2-ppv-4458158 FC2-PPV-4458158 Tanpa sensor 2025-08-29 13:57:00 API
268551 100319-01 Sperma Enak Ya? 100319-01 Tanpa sensor 2025-08-29 13:56:50 API
268550 K1431 Wanita Mangsa K1431 Tanpa sensor 2025-08-29 13:56:40 API
268549 HEYZO-2242 Mimpi Para Pria! Uhauha Reverse 3P yang Nikmat! Vol.3 HEYZO-2242 Tanpa sensor 2025-08-29 13:56:30 API
268548 H4610-KI210119 Mami Shiratori Gadis 22 Tahun H4610-KI210119 Tanpa sensor 2025-08-29 13:56:20 API
268547 C0930-KI191022 Motoko Adachi Usia 45 Tahun C0930-KI191022 Tanpa sensor 2025-08-29 13:56:10 API
268546 H0930-ORI1566 Wanita Seksi 33 Tahun Kanenobu Ayaka H0930-ORI1566 Tanpa sensor 2025-08-29 13:56:00 API
268545 022819-042 042 Lemparkan bikini ke atas dan semprotkan sperma ke dalam vagina yang kasar 022819-042 Tanpa sensor 2025-08-29 13:55:50 API
268544 060620-001 Seperti Kupu-kupu ~ Soapland Kendaraan Roda Dua di Pink Street 12 ~ Yu Toyoda, Hiromi Okura 060620-001 Tanpa sensor 2025-08-29 13:55:40 API
268543 HEYZO-2243 Kenikmatan dengan massage erotis! ~ Bersama Sara Saijo ~ HEYZO-2243 Tanpa sensor 2025-08-29 13:55:30 API
268542 080918_002 Koleksi Terbaik 10 Set 1pondo Setengah Pertama Edisi Spesial 080918_002 Tanpa sensor 2025-08-29 13:55:20 API
268541 FC2-PPV-4437948 Video pribadi, wanita cantik dengan kepribadian yang polos *Belum diperiksa/difilmkan FC2-PPV-4437948 Tanpa sensor 2025-08-29 13:55:10 API
268540 K1432 Wanita Mangsa K1432 Tanpa sensor 2025-08-29 13:55:00 API
268539 C0930-KI191024 Akiko Kurihara Wanita 31 Tahun C0930-KI191024 Tanpa sensor 2025-08-29 13:54:50 API
268538 HEYZO-2252 Kylie [Kairi] Isap Payudara Besar Lalu Dikenyot Creampie! Nenen Gede Banget .. # Kylie HEYZO-2252 Tanpa sensor 2025-08-29 13:54:40 API
268537 100519-01 Aku Adalah Si Penusuk Ulung 100519-01 Tanpa sensor 2025-08-29 13:54:30 API
268536 H0930-KI200329 Akemi Seo, Wanita Matang 50 Tahun yang Seksi H0930-KI200329 Tanpa sensor 2025-08-29 13:54:20 API
268535 030219-043 Melatih Wanita Matang Cantik yang Penuh Pesona Seksual Sesukamu 030219-043 Tanpa sensor 2025-08-29 13:54:10 API
268533 HEYZO-2244 Hostess Kelas Atas Dengan Tangan "Spear" Ingin Ditusuk! ~ Aku Ingin Kamu Menjepitnya Dengan Payudara Besar yang Cantik! HEYZO-2244 Tanpa sensor 2025-08-29 13:53:50 API
268532 H4610-KI210121 Hitomi Egawa Usia 28 Tahun H4610-KI210121 Tanpa sensor 2025-08-29 13:53:40 API
268531 C0930-HITOZUMA1297 Saki Nakahara Wanita Matang 39 Tahun C0930-HITOZUMA1297 Tanpa sensor 2025-08-29 13:53:30 API
268530 100819-01 Gue dikentot sama cewek Cosplay Delher 100819-01 Tanpa sensor 2025-08-29 13:53:20 API
268529 060920-001 Berburu Perawan ~ Wanita Matang Cantik yang Sangat Nikmat ~ Kanae Murakami 060920-001 Tanpa sensor 2025-08-29 13:53:10 API
268528 FC2-PPV-4460227 Cowok Ganteng Dialek Kansai Datang ke Festival, Wajahnya Cakep Banget dan Bisa Membibit Michiru FC2-PPV-4460227 Tanpa sensor 2025-08-29 13:53:00 API
268527 030519-044 Wanita matang 50 tahun yang montok ditusuk bertubi 030519-044 Tanpa sensor 2025-08-29 13:52:50 API
268526 H0930-KI200328 Gadis 20 Tahun Dengan Fetish Ngompol yang Basah H0930-KI200328 Tanpa sensor 2025-08-29 13:52:40 API
268525 081118_726 Tokimeki ~ Pacar paling erotis dan imut di dunia ~ 081118_726 Tanpa sensor 2025-08-29 13:52:30 API
268524 HEYZO-2253 Creampie di dalam lubang anak perempuan rambut hitam kulit putih mulus HEYZO-2253 Tanpa sensor 2025-08-29 13:52:20 API
268523 K1433 Wanita Mangsa - K1433 Tanpa sensor 2025-08-29 13:52:10 API
268522 H4610-ORI1746 Yuka Ose Cewek 23 Tahun H4610-ORI1746 Tanpa sensor 2025-08-29 13:52:00 API
268521 C0930-KI191027 Hayanami Futaba Gadis 19 Tahun C0930-KI191027 Tanpa sensor 2025-08-29 13:51:50 API
268520 101019-01 Lihat aku dikentot sama aktor 101019-01 Tanpa sensor 2025-08-29 13:51:40 API
268519 H0930-KI200402 Chie Tominaga Wanita Matang 50 Tahun yang Seksi H0930-KI200402 Tanpa sensor 2025-08-29 13:51:30 API
268518 FC2-PPV-4458074 Air Liur Lezat dan Live Streaming Panas, Ngentot Ibu Dia Secara Mentah, Aku Sudah Sering Ngentot Ibunya Berkali FC2-PPV-4458074 Tanpa sensor 2025-08-29 13:51:20 API
268517 030719-045 Istri Orang Dikentot di Rumah ~ Kehidupan Nyata Seorang Perawat Senior ~ 030719-045 Tanpa sensor 2025-08-29 13:51:10 API
268516 061020-001 Buku Foto Memek Ren Kitazawa 061020-001 Tanpa sensor 2025-08-29 13:51:00 API
268515 081218_727 Koleksi Model Seksi Emiri Momota 081218_727 Tanpa sensor 2025-08-29 13:50:50 API
268514 HEYZO-2254 Negosiasi Fisik dengan Wanita Berpayudara Besar Menggunakan Sabun Mewah HEYZO-2254 Tanpa sensor 2025-08-29 13:50:40 API
268513 H4610-KI210124 Mao Fujiwara Wanita Seksi Usia 28 Tahun H4610-KI210124 Tanpa sensor 2025-08-29 13:50:30 API
268512 C0930-KI191026 Masturbasi Selfie yang Sangat Menggairahkan C0930-KI191026 Tanpa sensor 2025-08-29 13:50:20 API
268511 061220-001 Sepertinya wanita yang sudah lama gila padaku bekerja di tempat pijat biasa, jadi aku langsung sembur sperma ke dalam vaginanya! Miya Izumi 061220-001 Tanpa sensor 2025-08-29 13:50:10 API
268510 101219-01 Era Seragam ~ Aku Akan Memberimu Hadiah Jika Kau Memotretku ~ 101219-01 Tanpa sensor 2025-08-29 13:50:00 API
268509 H0930-ORI1567 Wanita Seksi 35 Tahun Makisaka Fuyumi H0930-ORI1567 Tanpa sensor 2025-08-29 13:49:50 API
268508 SKY-214 Thiên Thần Bầu Trời 137 Mai Shirosaki SKY-214 Tanpa sensor 2025-08-29 13:49:40 API
268507 081418_728 Istri Tetangga yang Nakal Tanpa Bra Saat Buang Sampah di Pagi Hari 081418_728 Tanpa sensor 2025-08-29 13:49:30 API
268506 HEYZO-2255 Aku akan memberimu "pie" manis bersama Hitomi Ohashi! HEYZO-2255 Tanpa sensor 2025-08-29 13:49:20 API
268504 FC2-PPV-4461869 fc2-ppv-4461869 FC2-PPV-4461869 Tanpa sensor 2025-08-29 13:49:00 API